sensor_id;sensor_type;location;lat;lon;timestamp;P1;durP1;ratioP1;P2;durP2;ratioP2
809;SDS011;387;48.772;9.186;2023-04-01T00:00:54;1.77;;;0.80;;
809;SDS011;387;48.772;9.186;2023-04-01T00:03:20;2.77;;;0.97;;
809;SDS011;387;48.772;9.186;2023-04-01T00:05:46;3.70;;;1.37;;
809;SDS011;387;48.772;9.186;2023-04-01T00:08:12;1.87;;;1.07;;
809;SDS011;387;48.772;9.186;2023-04-01T00:10:38;2.90;;;0.90;;
809;SDS011;387;48.772;9.186;2023-04-01T00:13:03;2.37;;;0.90;;
809;SDS011;387;48.772;9.186;2023-04-01T00:15:29;2.87;;;1.30;;
809;SDS011;387;48.772;9.186;2023-04-01T00:17:55;6.83;;;1.07;;
809;SDS011;387;48.772;9.186;2023-04-01T00:20:20;2.90;;;1.00;;
809;SDS011;387;48.772;9.186;2023-04-01T00:22:46;2.10;;;1.20;;
809;SDS011;387;48.772;9.186;2023-04-01T00:25:12;4.60;;;1.03;;
809;SDS011;387;48.772;9.186;2023-04-01T00:27:40;5.77;;;0.97;;
809;SDS011;387;48.772;9.186;2023-04-01T00:30:06;2.03;;;0.97;;
809;SDS011;387;48.772;9.186;2023-04-01T00:32:33;3.77;;;1.20;;
809;SDS011;387;48.772;9.186;2023-04-01T00:34:59;3.67;;;1.93;;
809;SDS011;387;48.772;9.186;2023-04-01T00:37:25;1.70;;;1.00;;
809;SDS011;387;48.772;9.186;2023-04-01T00:39:51;3.20;;;1.30;;
809;SDS011;387;48.772;9.186;2023-04-01T00:42:17;2.03;;;1.00;;
809;SDS011;387;48.772;9.186;2023-04-01T00:44:44;4.07;;;1.20;;
809;SDS011;387;48.772;9.186;2023-04-01T00:47:12;3.70;;;1.30;;
809;SDS011;387;48.772;9.186;2023-04-01T00:49:40;3.47;;;1.27;;
809;SDS011;387;48.772;9.186;2023-04-01T00:52:09;3.43;;;1.40;;
809;SDS011;387;48.772;9.186;2023-04-01T00:54:38;5.03;;;1.77;;
809;SDS011;387;48.772;9.186;2023-04-01T00:59:34;4.40;;;1.40;;
809;SDS011;387;48.772;9.186;2023-04-01T01:02:05;3.20;;;1.27;;
809;SDS011;387;48.772;9.186;2023-04-01T01:04:34;2.97;;;1.07;;
809;SDS011;387;48.772;9.186;2023-04-01T01:07:11;7.23;;;1.13;;
809;SDS011;387;48.772;9.186;2023-04-01T01:12:40;2.53;;;1.00;;
809;SDS011;387;48.772;9.186;2023-04-01T01:15:32;1.40;;;0.87;;
809;SDS011;387;48.772;9.186;2023-04-01T01:18:35;6.73;;;1.70;;
809;SDS011;387;48.772;9.186;2023-04-01T01:26:38;6.50;;;1.20;;
809;SDS011;387;48.772;9.186;2023-04-01T01:35:24;2.60;;;1.30;;
809;SDS011;387;48.772;9.186;2023-04-01T01:38:04;4.23;;;1.10;;
809;SDS011;387;48.772;9.186;2023-04-01T01:40:34;1.77;;;0.90;;
809;SDS011;387;48.772;9.186;2023-04-01T01:43:06;2.40;;;1.00;;
809;SDS011;387;48.772;9.186;2023-04-01T01:45:37;3.57;;;1.40;;
809;SDS011;387;48.772;9.186;2023-04-01T01:48:07;8.87;;;1.30;;
809;SDS011;387;48.772;9.186;2023-04-01T01:50:34;3.87;;;1.13;;
809;SDS011;387;48.772;9.186;2023-04-01T01:53:05;2.10;;;1.30;;
809;SDS011;387;48.772;9.186;2023-04-01T01:55:34;3.40;;;1.10;;
809;SDS011;387;48.772;9.186;2023-04-01T01:58:03;1.77;;;1.03;;
809;SDS011;387;48.772;9.186;2023-04-01T02:00:36;2.80;;;0.93;;
809;SDS011;387;48.772;9.186;2023-04-01T02:03:03;2.17;;;1.10;;
809;SDS011;387;48.772;9.186;2023-04-01T02:05:30;5.63;;;0.90;;
809;SDS011;387;48.772;9.186;2023-04-01T02:08:06;2.00;;;0.87;;
809;SDS011;387;48.772;9.186;2023-04-01T02:10:37;1.93;;;1.00;;
809;SDS011;387;48.772;9.186;2023-04-01T02:13:08;1.83;;;0.90;;
809;SDS011;387;48.772;9.186;2023-04-01T02:15:42;3.00;;;0.80;;
809;SDS011;387;48.772;9.186;2023-04-01T02:18:12;2.17;;;1.00;;
809;SDS011;387;48.772;9.186;2023-04-01T02:20:39;1.20;;;1.10;;
809;SDS011;387;48.772;9.186;2023-04-01T02:23:06;1.57;;;0.70;;
809;SDS011;387;48.772;9.186;2023-04-01T02:25:35;1.47;;;0.70;;
809;SDS011;387;48.772;9.186;2023-04-01T02:28:02;1.70;;;0.87;;
809;SDS011;387;48.772;9.186;2023-04-01T02:30:31;1.47;;;0.97;;
809;SDS011;387;48.772;9.186;2023-04-01T02:33:00;2.00;;;0.97;;
809;SDS011;387;48.772;9.186;2023-04-01T02:35:26;2.00;;;0.77;;
809;SDS011;387;48.772;9.186;2023-04-01T02:37:53;1.17;;;0.70;;
809;SDS011;387;48.772;9.186;2023-04-01T02:40:19;4.53;;;0.70;;
809;SDS011;387;48.772;9.186;2023-04-01T02:42:45;0.77;;;0.50;;
809;SDS011;387;48.772;9.186;2023-04-01T02:45:11;0.93;;;0.60;;
809;SDS011;387;48.772;9.186;2023-04-01T02:47:37;1.60;;;0.80;;
809;SDS011;387;48.772;9.186;2023-04-01T02:50:03;1.00;;;0.60;;
809;SDS011;387;48.772;9.186;2023-04-01T02:52:30;1.97;;;0.70;;
809;SDS011;387;48.772;9.186;2023-04-01T02:54:55;1.77;;;0.70;;
809;SDS011;387;48.772;9.186;2023-04-01T02:57:22;2.40;;;0.83;;
809;SDS011;387;48.772;9.186;2023-04-01T02:59:48;3.67;;;1.00;;
809;SDS011;387;48.772;9.186;2023-04-01T03:02:15;2.13;;;0.80;;
809;SDS011;387;48.772;9.186;2023-04-01T03:04:41;2.93;;;0.80;;
809;SDS011;387;48.772;9.186;2023-04-01T03:07:07;1.07;;;0.70;;
809;SDS011;387;48.772;9.186;2023-04-01T03:09:35;1.03;;;0.63;;
809;SDS011;387;48.772;9.186;2023-04-01T03:12:01;2.90;;;0.70;;
809;SDS011;387;48.772;9.186;2023-04-01T03:14:26;1.20;;;0.70;;
809;SDS011;387;48.772;9.186;2023-04-01T03:16:52;2.00;;;0.90;;
809;SDS011;387;48.772;9.186;2023-04-01T03:19:18;1.00;;;0.70;;
809;SDS011;387;48.772;9.186;2023-04-01T03:21:43;1.90;;;0.80;;
809;SDS011;387;48.772;9.186;2023-04-01T03:24:09;5.13;;;0.80;;
809;SDS011;387;48.772;9.186;2023-04-01T03:26:34;1.03;;;0.70;;
809;SDS011;387;48.772;9.186;2023-04-01T03:29:00;3.90;;;0.90;;
809;SDS011;387;48.772;9.186;2023-04-01T03:31:26;1.20;;;0.70;;
809;SDS011;387;48.772;9.186;2023-04-01T03:33:51;1.10;;;0.60;;
809;SDS011;387;48.772;9.186;2023-04-01T03:36:17;0.70;;;0.70;;
809;SDS011;387;48.772;9.186;2023-04-01T03:38:43;1.20;;;0.60;;
809;SDS011;387;48.772;9.186;2023-04-01T03:41:16;2.77;;;1.00;;
809;SDS011;387;48.772;9.186;2023-04-01T03:43:42;1.00;;;0.70;;
809;SDS011;387;48.772;9.186;2023-04-01T03:46:08;2.50;;;0.60;;
809;SDS011;387;48.772;9.186;2023-04-01T03:48:34;1.00;;;0.60;;
809;SDS011;387;48.772;9.186;2023-04-01T03:51:00;1.30;;;0.60;;
809;SDS011;387;48.772;9.186;2023-04-01T03:53:26;1.57;;;0.63;;
809;SDS011;387;48.772;9.186;2023-04-01T03:55:52;2.07;;;1.10;;
809;SDS011;387;48.772;9.186;2023-04-01T03:58:18;3.97;;;0.80;;
809;SDS011;387;48.772;9.186;2023-04-01T04:00:43;1.63;;;0.63;;
809;SDS011;387;48.772;9.186;2023-04-01T04:03:09;1.50;;;0.70;;
809;SDS011;387;48.772;9.186;2023-04-01T04:05:35;1.73;;;0.80;;
809;SDS011;387;48.772;9.186;2023-04-01T04:08:00;1.20;;;0.70;;
809;SDS011;387;48.772;9.186;2023-04-01T04:10:26;1.90;;;0.60;;
809;SDS011;387;48.772;9.186;2023-04-01T04:12:54;0.80;;;0.60;;
809;SDS011;387;48.772;9.186;2023-04-01T04:15:20;1.20;;;0.60;;
809;SDS011;387;48.772;9.186;2023-04-01T04:17:46;1.50;;;0.70;;
809;SDS011;387;48.772;9.186;2023-04-01T04:20:12;2.37;;;0.70;;
809;SDS011;387;48.772;9.186;2023-04-01T04:22:38;1.53;;;0.63;;
809;SDS011;387;48.772;9.186;2023-04-01T04:25:03;2.40;;;0.60;;
809;SDS011;387;48.772;9.186;2023-04-01T04:27:29;2.00;;;0.70;;
809;SDS011;387;48.772;9.186;2023-04-01T04:29:55;1.57;;;0.80;;
809;SDS011;387;48.772;9.186;2023-04-01T04:32:20;3.70;;;0.60;;
809;SDS011;387;48.772;9.186;2023-04-01T04:34:46;1.90;;;0.60;;
809;SDS011;387;48.772;9.186;2023-04-01T04:37:11;0.80;;;0.50;;
809;SDS011;387;48.772;9.186;2023-04-01T04:39:37;1.30;;;0.50;;
809;SDS011;387;48.772;9.186;2023-04-01T04:42:03;2.53;;;0.70;;
809;SDS011;387;48.772;9.186;2023-04-01T04:44:28;1.03;;;0.60;;
809;SDS011;387;48.772;9.186;2023-04-01T04:46:54;2.63;;;0.70;;
809;SDS011;387;48.772;9.186;2023-04-01T04:49:20;0.70;;;0.60;;
809;SDS011;387;48.772;9.186;2023-04-01T04:51:45;1.20;;;0.60;;
809;SDS011;387;48.772;9.186;2023-04-01T04:54:11;1.93;;;0.90;;
809;SDS011;387;48.772;9.186;2023-04-01T04:56:36;0.80;;;0.60;;
809;SDS011;387;48.772;9.186;2023-04-01T04:59:02;1.20;;;0.67;;
809;SDS011;387;48.772;9.186;2023-04-01T05:01:27;1.37;;;0.60;;
809;SDS011;387;48.772;9.186;2023-04-01T05:03:53;1.33;;;0.67;;
809;SDS011;387;48.772;9.186;2023-04-01T05:06:19;1.73;;;0.70;;
809;SDS011;387;48.772;9.186;2023-04-01T05:08:45;1.47;;;0.70;;
809;SDS011;387;48.772;9.186;2023-04-01T05:11:15;1.93;;;0.73;;
809;SDS011;387;48.772;9.186;2023-04-01T05:13:42;2.30;;;1.00;;
809;SDS011;387;48.772;9.186;2023-04-01T05:16:09;2.30;;;0.70;;
809;SDS011;387;48.772;9.186;2023-04-01T05:18:39;5.23;;;1.00;;
809;SDS011;387;48.772;9.186;2023-04-01T05:21:06;4.70;;;1.00;;
809;SDS011;387;48.772;9.186;2023-04-01T05:23:33;6.00;;;0.80;;
809;SDS011;387;48.772;9.186;2023-04-01T05:26:04;3.17;;;1.10;;
809;SDS011;387;48.772;9.186;2023-04-01T05:28:30;4.30;;;1.00;;
809;SDS011;387;48.772;9.186;2023-04-01T05:30:58;3.10;;;1.10;;
809;SDS011;387;48.772;9.186;2023-04-01T05:33:25;5.23;;;1.00;;
809;SDS011;387;48.772;9.186;2023-04-01T05:35:52;1.47;;;0.80;;
809;SDS011;387;48.772;9.186;2023-04-01T05:38:18;2.27;;;0.90;;
809;SDS011;387;48.772;9.186;2023-04-01T05:40:43;1.93;;;0.83;;
809;SDS011;387;48.772;9.186;2023-04-01T05:43:09;1.47;;;0.83;;
809;SDS011;387;48.772;9.186;2023-04-01T05:45:35;1.43;;;1.00;;
809;SDS011;387;48.772;9.186;2023-04-01T05:48:00;3.90;;;0.90;;
809;SDS011;387;48.772;9.186;2023-04-01T05:50:26;3.70;;;0.83;;
809;SDS011;387;48.772;9.186;2023-04-01T05:52:52;3.40;;;1.17;;
809;SDS011;387;48.772;9.186;2023-04-01T05:55:18;3.80;;;1.07;;
809;SDS011;387;48.772;9.186;2023-04-01T05:57:44;4.97;;;1.00;;
809;SDS011;387;48.772;9.186;2023-04-01T06:00:11;3.03;;;0.80;;
809;SDS011;387;48.772;9.186;2023-04-01T06:02:38;1.10;;;0.70;;
809;SDS011;387;48.772;9.186;2023-04-01T06:05:20;4.40;;;0.90;;
809;SDS011;387;48.772;9.186;2023-04-01T06:07:48;4.80;;;1.10;;
809;SDS011;387;48.772;9.186;2023-04-01T06:10:22;1.70;;;1.10;;
809;SDS011;387;48.772;9.186;2023-04-01T06:16:09;2.30;;;1.00;;
809;SDS011;387;48.772;9.186;2023-04-01T06:18:53;1.23;;;0.70;;
809;SDS011;387;48.772;9.186;2023-04-01T06:38:26;1.20;;;0.77;;
809;SDS011;387;48.772;9.186;2023-04-01T06:46:41;4.33;;;1.10;;
809;SDS011;387;48.772;9.186;2023-04-01T06:57:58;2.53;;;0.93;;
809;SDS011;387;48.772;9.186;2023-04-01T07:00:33;2.97;;;0.83;;
809;SDS011;387;48.772;9.186;2023-04-01T07:05:44;1.00;;;0.70;;
809;SDS011;387;48.772;9.186;2023-04-01T07:08:11;1.20;;;0.80;;
809;SDS011;387;48.772;9.186;2023-04-01T07:16:07;2.80;;;0.90;;
809;SDS011;387;48.772;9.186;2023-04-01T07:18:48;1.80;;;1.00;;
809;SDS011;387;48.772;9.186;2023-04-01T07:21:19;2.63;;;0.80;;
809;SDS011;387;48.772;9.186;2023-04-01T07:23:54;2.47;;;0.97;;
809;SDS011;387;48.772;9.186;2023-04-01T07:26:25;1.73;;;0.90;;
809;SDS011;387;48.772;9.186;2023-04-01T07:28:52;5.07;;;0.90;;
809;SDS011;387;48.772;9.186;2023-04-01T07:31:21;0.90;;;0.77;;
809;SDS011;387;48.772;9.186;2023-04-01T07:34:17;4.70;;;0.97;;
809;SDS011;387;48.772;9.186;2023-04-01T07:36:54;1.40;;;0.80;;
809;SDS011;387;48.772;9.186;2023-04-01T07:39:51;3.60;;;1.20;;
809;SDS011;387;48.772;9.186;2023-04-01T07:51:00;3.13;;;1.03;;
809;SDS011;387;48.772;9.186;2023-04-01T07:53:35;8.30;;;1.40;;
809;SDS011;387;48.772;9.186;2023-04-01T07:56:09;2.77;;;1.00;;
809;SDS011;387;48.772;9.186;2023-04-01T08:01:49;4.03;;;1.10;;
809;SDS011;387;48.772;9.186;2023-04-01T08:07:34;1.57;;;0.90;;
809;SDS011;387;48.772;9.186;2023-04-01T08:13:15;3.17;;;1.10;;
809;SDS011;387;48.772;9.186;2023-04-01T08:21:16;8.87;;;1.27;;
809;SDS011;387;48.772;9.186;2023-04-01T08:23:49;1.37;;;0.70;;
809;SDS011;387;48.772;9.186;2023-04-01T08:26:22;2.30;;;0.73;;
809;SDS011;387;48.772;9.186;2023-04-01T08:28:57;3.17;;;1.97;;
809;SDS011;387;48.772;9.186;2023-04-01T08:31:32;5.03;;;0.93;;
809;SDS011;387;48.772;9.186;2023-04-01T08:34:11;1.63;;;1.03;;
809;SDS011;387;48.772;9.186;2023-04-01T08:36:44;4.00;;;1.00;;
809;SDS011;387;48.772;9.186;2023-04-01T08:39:16;1.47;;;0.80;;
809;SDS011;387;48.772;9.186;2023-04-01T08:56:17;1.70;;;1.00;;
809;SDS011;387;48.772;9.186;2023-04-01T09:07:13;1.57;;;1.00;;
809;SDS011;387;48.772;9.186;2023-04-01T09:12:51;2.07;;;0.90;;
809;SDS011;387;48.772;9.186;2023-04-01T09:15:37;4.23;;;0.80;;
809;SDS011;387;48.772;9.186;2023-04-01T09:29:25;0.70;;;0.60;;
809;SDS011;387;48.772;9.186;2023-04-01T09:40:08;1.20;;;0.70;;
809;SDS011;387;48.772;9.186;2023-04-01T09:45:31;3.13;;;0.70;;
809;SDS011;387;48.772;9.186;2023-04-01T09:50:41;2.20;;;0.70;;
809;SDS011;387;48.772;9.186;2023-04-01T09:56:26;2.13;;;0.77;;
809;SDS011;387;48.772;9.186;2023-04-01T10:20:59;1.30;;;0.70;;
809;SDS011;387;48.772;9.186;2023-04-01T10:26:21;0.87;;;0.50;;
809;SDS011;387;48.772;9.186;2023-04-01T10:29:15;1.53;;;0.90;;
809;SDS011;387;48.772;9.186;2023-04-01T10:32:29;0.70;;;0.60;;
809;SDS011;387;48.772;9.186;2023-04-01T10:35:28;2.10;;;0.57;;
809;SDS011;387;48.772;9.186;2023-04-01T10:51:55;1.63;;;0.70;;
809;SDS011;387;48.772;9.186;2023-04-01T10:58:00;1.70;;;0.70;;
809;SDS011;387;48.772;9.186;2023-04-01T11:03:51;0.60;;;0.50;;
809;SDS011;387;48.772;9.186;2023-04-01T11:26:04;1.23;;;0.70;;
809;SDS011;387;48.772;9.186;2023-04-01T11:28:45;1.27;;;0.70;;
809;SDS011;387;48.772;9.186;2023-04-01T11:35:25;1.03;;;0.67;;
809;SDS011;387;48.772;9.186;2023-04-01T11:49:02;1.30;;;0.70;;
809;SDS011;387;48.772;9.186;2023-04-01T12:05:23;1.03;;;0.70;;
809;SDS011;387;48.772;9.186;2023-04-01T12:29:45;1.77;;;0.80;;
809;SDS011;387;48.772;9.186;2023-04-01T12:35:21;2.00;;;0.80;;
809;SDS011;387;48.772;9.186;2023-04-01T12:43:46;1.07;;;0.60;;
809;SDS011;387;48.772;9.186;2023-04-01T12:53:06;0.73;;;0.60;;
809;SDS011;387;48.772;9.186;2023-04-01T13:00:30;1.00;;;0.63;;
809;SDS011;387;48.772;9.186;2023-04-01T13:03:06;0.90;;;0.60;;
809;SDS011;387;48.772;9.186;2023-04-01T13:08:37;0.97;;;0.70;;
809;SDS011;387;48.772;9.186;2023-04-01T13:11:09;1.00;;;0.80;;
809;SDS011;387;48.772;9.186;2023-04-01T13:14:08;1.00;;;0.70;;
809;SDS011;387;48.772;9.186;2023-04-01T13:22:11;1.23;;;0.60;;
809;SDS011;387;48.772;9.186;2023-04-01T13:24:52;0.80;;;0.50;;
809;SDS011;387;48.772;9.186;2023-04-01T13:27:45;0.80;;;0.50;;
809;SDS011;387;48.772;9.186;2023-04-01T13:33:43;0.97;;;0.60;;
809;SDS011;387;48.772;9.186;2023-04-01T13:36:24;1.70;;;0.90;;
809;SDS011;387;48.772;9.186;2023-04-01T13:42:38;1.90;;;0.70;;
809;SDS011;387;48.772;9.186;2023-04-01T13:55:55;0.80;;;0.60;;
809;SDS011;387;48.772;9.186;2023-04-01T14:20:36;0.70;;;0.60;;
809;SDS011;387;48.772;9.186;2023-04-01T14:31:54;0.70;;;0.50;;
809;SDS011;387;48.772;9.186;2023-04-01T14:34:28;1.20;;;0.80;;
809;SDS011;387;48.772;9.186;2023-04-01T14:44:57;0.80;;;0.60;;
809;SDS011;387;48.772;9.186;2023-04-01T14:50:31;0.70;;;0.50;;
809;SDS011;387;48.772;9.186;2023-04-01T14:58:46;0.97;;;0.70;;
809;SDS011;387;48.772;9.186;2023-04-01T15:20:59;1.03;;;0.70;;
809;SDS011;387;48.772;9.186;2023-04-01T15:24:03;1.10;;;0.60;;
809;SDS011;387;48.772;9.186;2023-04-01T15:38:05;1.27;;;0.70;;
809;SDS011;387;48.772;9.186;2023-04-01T15:40:49;1.30;;;0.80;;
809;SDS011;387;48.772;9.186;2023-04-01T16:05:30;0.93;;;0.60;;
809;SDS011;387;48.772;9.186;2023-04-01T16:13:42;0.90;;;0.67;;
809;SDS011;387;48.772;9.186;2023-04-01T16:33:14;1.10;;;0.90;;
809;SDS011;387;48.772;9.186;2023-04-01T16:38:36;1.10;;;0.80;;
809;SDS011;387;48.772;9.186;2023-04-01T16:41:17;1.27;;;0.60;;
809;SDS011;387;48.772;9.186;2023-04-01T16:44:13;1.60;;;0.80;;
809;SDS011;387;48.772;9.186;2023-04-01T16:46:45;0.90;;;0.80;;
809;SDS011;387;48.772;9.186;2023-04-01T16:49:37;1.90;;;0.90;;
809;SDS011;387;48.772;9.186;2023-04-01T16:54:38;2.97;;;1.20;;
809;SDS011;387;48.772;9.186;2023-04-01T16:59:37;2.13;;;1.17;;
809;SDS011;387;48.772;9.186;2023-04-01T17:04:37;2.03;;;1.00;;
809;SDS011;387;48.772;9.186;2023-04-01T17:12:33;4.20;;;1.70;;
809;SDS011;387;48.772;9.186;2023-04-01T17:15:22;2.50;;;1.17;;
809;SDS011;387;48.772;9.186;2023-04-01T17:21:22;2.67;;;1.30;;
809;SDS011;387;48.772;9.186;2023-04-01T17:31:30;4.07;;;1.37;;
809;SDS011;387;48.772;9.186;2023-04-01T17:34:23;2.13;;;1.30;;
809;SDS011;387;48.772;9.186;2023-04-01T17:37:18;4.10;;;1.20;;
809;SDS011;387;48.772;9.186;2023-04-01T17:46:11;2.30;;;1.40;;
809;SDS011;387;48.772;9.186;2023-04-01T17:48:49;2.57;;;1.57;;
809;SDS011;387;48.772;9.186;2023-04-01T17:59:58;2.70;;;1.50;;
809;SDS011;387;48.772;9.186;2023-04-01T18:30:52;4.13;;;1.80;;
809;SDS011;387;48.772;9.186;2023-04-01T18:36:38;1.77;;;1.30;;
809;SDS011;387;48.772;9.186;2023-04-01T18:39:57;2.80;;;1.23;;
809;SDS011;387;48.772;9.186;2023-04-01T18:42:03;1.47;;;1.00;;
809;SDS011;387;48.772;9.186;2023-04-01T18:44:51;1.97;;;1.47;;
809;SDS011;387;48.772;9.186;2023-04-01T18:50:14;1.90;;;1.20;;
809;SDS011;387;48.772;9.186;2023-04-01T18:52:54;2.00;;;1.10;;
809;SDS011;387;48.772;9.186;2023-04-01T18:55:39;2.37;;;1.00;;
809;SDS011;387;48.772;9.186;2023-04-01T18:58:16;1.87;;;1.20;;
809;SDS011;387;48.772;9.186;2023-04-01T19:05:47;2.60;;;1.70;;
809;SDS011;387;48.772;9.186;2023-04-01T19:14:13;3.13;;;1.30;;
809;SDS011;387;48.772;9.186;2023-04-01T19:19:53;2.17;;;1.37;;
809;SDS011;387;48.772;9.186;2023-04-01T19:31:01;1.87;;;1.27;;
809;SDS011;387;48.772;9.186;2023-04-01T19:34:08;3.13;;;1.60;;
809;SDS011;387;48.772;9.186;2023-04-01T19:47:20;2.53;;;1.50;;
809;SDS011;387;48.772;9.186;2023-04-01T20:01:35;1.40;;;0.97;;
809;SDS011;387;48.772;9.186;2023-04-01T20:04:07;5.40;;;1.10;;
809;SDS011;387;48.772;9.186;2023-04-01T20:06:51;1.60;;;1.20;;
809;SDS011;387;48.772;9.186;2023-04-01T20:14:50;3.90;;;1.37;;
809;SDS011;387;48.772;9.186;2023-04-01T20:17:22;1.43;;;1.10;;
809;SDS011;387;48.772;9.186;2023-04-01T20:20:20;2.17;;;1.30;;
809;SDS011;387;48.772;9.186;2023-04-01T20:23:16;2.70;;;1.57;;
809;SDS011;387;48.772;9.186;2023-04-01T20:25:59;2.00;;;1.10;;
809;SDS011;387;48.772;9.186;2023-04-01T20:28:32;2.90;;;1.20;;
809;SDS011;387;48.772;9.186;2023-04-01T20:31:24;3.40;;;1.30;;
809;SDS011;387;48.772;9.186;2023-04-01T20:37:20;1.60;;;0.90;;
809;SDS011;387;48.772;9.186;2023-04-01T20:39:43;2.13;;;1.13;;
809;SDS011;387;48.772;9.186;2023-04-01T20:42:23;1.60;;;1.23;;
809;SDS011;387;48.772;9.186;2023-04-01T20:44:59;1.20;;;0.83;;
809;SDS011;387;48.772;9.186;2023-04-01T20:50:30;1.40;;;1.00;;
809;SDS011;387;48.772;9.186;2023-04-01T20:53:07;1.70;;;1.17;;
809;SDS011;387;48.772;9.186;2023-04-01T21:15:03;1.53;;;1.10;;
809;SDS011;387;48.772;9.186;2023-04-01T21:25:58;1.40;;;0.97;;
809;SDS011;387;48.772;9.186;2023-04-01T21:28:34;3.90;;;1.27;;
809;SDS011;387;48.772;9.186;2023-04-01T21:31:19;1.30;;;1.00;;
809;SDS011;387;48.772;9.186;2023-04-01T21:53:52;1.80;;;1.20;;
809;SDS011;387;48.772;9.186;2023-04-01T22:07:25;1.50;;;1.23;;
809;SDS011;387;48.772;9.186;2023-04-01T22:10:26;1.50;;;1.00;;
809;SDS011;387;48.772;9.186;2023-04-01T22:13:07;1.60;;;1.00;;
809;SDS011;387;48.772;9.186;2023-04-01T22:15:48;2.13;;;1.17;;
809;SDS011;387;48.772;9.186;2023-04-01T22:18:33;2.10;;;1.13;;
809;SDS011;387;48.772;9.186;2023-04-01T22:23:45;1.37;;;1.00;;
809;SDS011;387;48.772;9.186;2023-04-01T22:28:52;2.23;;;1.00;;
809;SDS011;387;48.772;9.186;2023-04-01T22:34:26;1.93;;;1.23;;
809;SDS011;387;48.772;9.186;2023-04-01T22:42:25;1.60;;;0.97;;
809;SDS011;387;48.772;9.186;2023-04-01T22:50:25;2.23;;;0.90;;
809;SDS011;387;48.772;9.186;2023-04-01T22:53:14;1.53;;;0.97;;
809;SDS011;387;48.772;9.186;2023-04-01T22:55:44;4.83;;;1.20;;
809;SDS011;387;48.772;9.186;2023-04-01T22:58:18;3.10;;;0.80;;
809;SDS011;387;48.772;9.186;2023-04-01T23:00:58;1.40;;;1.10;;
809;SDS011;387;48.772;9.186;2023-04-01T23:06:02;1.53;;;0.90;;
809;SDS011;387;48.772;9.186;2023-04-01T23:12:25;1.40;;;0.70;;
809;SDS011;387;48.772;9.186;2023-04-01T23:22:13;1.37;;;0.90;;
809;SDS011;387;48.772;9.186;2023-04-01T23:27:32;1.13;;;0.70;;
809;SDS011;387;48.772;9.186;2023-04-01T23:30:02;3.00;;;1.23;;
809;SDS011;387;48.772;9.186;2023-04-01T23:32:28;1.00;;;0.77;;
809;SDS011;387;48.772;9.186;2023-04-01T23:34:55;3.20;;;0.97;;
809;SDS011;387;48.772;9.186;2023-04-01T23:37:23;1.60;;;0.90;;
809;SDS011;387;48.772;9.186;2023-04-01T23:39:54;2.57;;;1.10;;
809;SDS011;387;48.772;9.186;2023-04-01T23:45:04;1.87;;;0.90;;
809;SDS011;387;48.772;9.186;2023-04-01T23:47:38;2.37;;;1.10;;
809;SDS011;387;48.772;9.186;2023-04-01T23:50:13;1.10;;;0.80;;
809;SDS011;387;48.772;9.186;2023-04-01T23:52:44;0.90;;;0.80;;
809;SDS011;387;48.772;9.186;2023-04-01T23:55:23;0.80;;;0.70;;
